sensor_id;sensor_type;location;lat;lon;timestamp;pressure;altitude;pressure_sealevel;temperature;humidity
30554;BME280;17335;50.720;7.452;2023-12-20T00:01:02;99254.84;;;6.05;100.00
30554;BME280;17335;50.720;7.452;2023-12-20T00:03:29;99252.66;;;6.10;100.00
30554;BME280;17335;50.720;7.452;2023-12-20T00:06:07;99252.66;;;6.10;100.00
30554;BME280;17335;50.720;7.452;2023-12-20T00:08:34;99250.75;;;6.23;100.00
30554;BME280;17335;50.720;7.452;2023-12-20T00:11:00;99241.41;;;6.17;100.00
30554;BME280;17335;50.720;7.452;2023-12-20T00:13:27;99246.88;;;6.16;100.00
30554;BME280;17335;50.720;7.452;2023-12-20T00:15:53;99252.44;;;6.13;100.00
30554;BME280;17335;50.720;7.452;2023-12-20T00:18:20;99243.47;;;6.14;100.00
30554;BME280;17335;50.720;7.452;2023-12-20T00:20:46;99230.38;;;6.22;100.00
30554;BME280;17335;50.720;7.452;2023-12-20T00:23:13;99224.81;;;6.25;100.00
30554;BME280;17335;50.720;7.452;2023-12-20T00:25:39;99233.53;;;6.27;100.00
30554;BME280;17335;50.720;7.452;2023-12-20T00:28:06;99235.25;;;6.28;100.00
30554;BME280;17335;50.720;7.452;2023-12-20T00:30:33;99229.91;;;6.28;100.00
30554;BME280;17335;50.720;7.452;2023-12-20T00:32:59;99240.81;;;6.25;100.00
30554;BME280;17335;50.720;7.452;2023-12-20T00:35:26;99239.13;;;6.24;100.00
30554;BME280;17335;50.720;7.452;2023-12-20T00:37:53;99244.31;;;6.26;100.00
30554;BME280;17335;50.720;7.452;2023-12-20T00:40:19;99244.56;;;6.23;100.00
30554;BME280;17335;50.720;7.452;2023-12-20T00:42:47;99245.53;;;6.22;100.00
30554;BME280;17335;50.720;7.452;2023-12-20T00:45:14;99237.19;;;6.26;100.00
30554;BME280;17335;50.720;7.452;2023-12-20T00:47:40;99237.19;;;6.26;100.00
30554;BME280;17335;50.720;7.452;2023-12-20T00:50:08;99244.19;;;6.27;100.00
30554;BME280;17335;50.720;7.452;2023-12-20T00:52:35;99237.19;;;6.26;100.00
30554;BME280;17335;50.720;7.452;2023-12-20T00:55:03;99226.13;;;6.31;100.00
30554;BME280;17335;50.720;7.452;2023-12-20T00:57:30;99235.47;;;6.25;100.00
30554;BME280;17335;50.720;7.452;2023-12-20T00:59:57;99237.91;;;6.28;100.00
30554;BME280;17335;50.720;7.452;2023-12-20T01:02:24;99234.28;;;6.29;100.00
30554;BME280;17335;50.720;7.452;2023-12-20T01:04:50;99245.19;;;6.26;100.00
30554;BME280;17335;50.720;7.452;2023-12-20T01:07:18;99239.13;;;6.24;100.00
30554;BME280;17335;50.720;7.452;2023-12-20T01:09:45;99233.81;;;6.24;100.00
30554;BME280;17335;50.720;7.452;2023-12-20T01:12:11;99233.03;;;6.22;100.00
30554;BME280;17335;50.720;7.452;2023-12-20T01:14:38;99236.81;;;6.31;100.00
30554;BME280;17335;50.720;7.452;2023-12-20T01:17:05;99235.81;;;6.20;100.00
30554;BME280;17335;50.720;7.452;2023-12-20T01:19:32;99235.63;;;6.35;100.00
30554;BME280;17335;50.720;7.452;2023-12-20T01:21:59;99230.66;;;6.19;100.00
30554;BME280;17335;50.720;7.452;2023-12-20T01:24:25;99249.66;;;6.26;100.00
30554;BME280;17335;50.720;7.452;2023-12-20T01:26:52;99258.50;;;6.26;100.00
30554;BME280;17335;50.720;7.452;2023-12-20T01:29:18;99255.34;;;6.32;100.00
30554;BME280;17335;50.720;7.452;2023-12-20T01:31:45;99257.06;;;6.33;100.00
30554;BME280;17335;50.720;7.452;2023-12-20T01:34:12;99258.88;;;6.33;100.00
30554;BME280;17335;50.720;7.452;2023-12-20T01:36:38;99263.13;;;6.35;100.00
30554;BME280;17335;50.720;7.452;2023-12-20T01:39:05;99266.41;;;6.28;100.00
30554;BME280;17335;50.720;7.452;2023-12-20T01:41:46;99271.84;;;6.26;100.00
30554;BME280;17335;50.720;7.452;2023-12-20T01:44:13;99260.47;;;6.24;100.00
30554;BME280;17335;50.720;7.452;2023-12-20T01:46:39;99265.78;;;6.24;100.00
30554;BME280;17335;50.720;7.452;2023-12-20T01:49:06;99261.53;;;6.22;100.00
30554;BME280;17335;50.720;7.452;2023-12-20T01:51:34;99261.66;;;6.20;100.00
30554;BME280;17335;50.720;7.452;2023-12-20T01:54:01;99267.69;;;6.22;100.00
30554;BME280;17335;50.720;7.452;2023-12-20T01:56:28;99286.25;;;6.24;100.00
30554;BME280;17335;50.720;7.452;2023-12-20T01:58:56;99272.06;;;6.23;100.00
30554;BME280;17335;50.720;7.452;2023-12-20T02:01:23;99277.28;;;6.25;100.00
30554;BME280;17335;50.720;7.452;2023-12-20T02:03:51;99281.53;;;6.27;100.00
30554;BME280;17335;50.720;7.452;2023-12-20T02:06:18;99289.03;;;6.22;100.00
30554;BME280;17335;50.720;7.452;2023-12-20T02:08:45;99290.13;;;6.19;100.00
30554;BME280;17335;50.720;7.452;2023-12-20T02:11:11;99275.56;;;6.24;100.00
30554;BME280;17335;50.720;7.452;2023-12-20T02:13:38;99292.19;;;6.27;100.00
30554;BME280;17335;50.720;7.452;2023-12-20T02:16:04;99287.13;;;6.24;100.00
30554;BME280;17335;50.720;7.452;2023-12-20T02:18:32;99293.63;;;6.20;100.00
30554;BME280;17335;50.720;7.452;2023-12-20T02:20:58;99299.44;;;6.25;100.00
30554;BME280;17335;50.720;7.452;2023-12-20T02:23:25;99295.56;;;6.18;100.00
30554;BME280;17335;50.720;7.452;2023-12-20T02:25:51;99286.25;;;6.12;100.00
30554;BME280;17335;50.720;7.452;2023-12-20T02:28:18;99288.19;;;6.10;100.00
30554;BME280;17335;50.720;7.452;2023-12-20T02:30:45;99282.69;;;6.12;100.00
30554;BME280;17335;50.720;7.452;2023-12-20T02:33:12;99301.13;;;6.15;100.00
30554;BME280;17335;50.720;7.452;2023-12-20T02:35:41;99293.50;;;6.10;100.00
30554;BME280;17335;50.720;7.452;2023-12-20T02:38:08;99295.41;;;6.08;100.00
30554;BME280;17335;50.720;7.452;2023-12-20T02:40:34;99289.75;;;6.13;100.00
30554;BME280;17335;50.720;7.452;2023-12-20T02:43:01;99295.53;;;6.07;100.00
30554;BME280;17335;50.720;7.452;2023-12-20T02:45:27;99287.03;;;6.01;100.00
30554;BME280;17335;50.720;7.452;2023-12-20T02:47:55;99295.91;;;6.02;100.00
30554;BME280;17335;50.720;7.452;2023-12-20T02:50:22;99301.69;;;5.96;100.00
30554;BME280;17335;50.720;7.452;2023-12-20T02:52:48;99308.41;;;5.89;100.00
30554;BME280;17335;50.720;7.452;2023-12-20T02:55:15;99302.69;;;5.82;100.00
30554;BME280;17335;50.720;7.452;2023-12-20T02:57:41;99318.41;;;5.74;100.00
30554;BME280;17335;50.720;7.452;2023-12-20T03:00:09;99323.91;;;5.59;100.00
30554;BME280;17335;50.720;7.452;2023-12-20T03:02:37;99326.06;;;5.54;100.00
30554;BME280;17335;50.720;7.452;2023-12-20T03:05:03;99339.59;;;5.51;100.00
30554;BME280;17335;50.720;7.452;2023-12-20T03:07:30;99333.03;;;5.44;100.00
30554;BME280;17335;50.720;7.452;2023-12-20T03:09:57;99344.88;;;5.40;100.00
30554;BME280;17335;50.720;7.452;2023-12-20T03:12:43;99344.63;;;5.43;100.00
30554;BME280;17335;50.720;7.452;2023-12-20T03:15:10;99343.38;;;5.36;100.00
30554;BME280;17335;50.720;7.452;2023-12-20T03:17:36;99338.53;;;5.30;100.00
30554;BME280;17335;50.720;7.452;2023-12-20T03:20:07;99337.03;;;5.25;100.00
30554;BME280;17335;50.720;7.452;2023-12-20T03:22:34;99321.28;;;5.22;100.00
30554;BME280;17335;50.720;7.452;2023-12-20T03:25:01;99333.34;;;5.15;100.00
30554;BME280;17335;50.720;7.452;2023-12-20T03:27:28;99335.16;;;5.15;100.00
30554;BME280;17335;50.720;7.452;2023-12-20T03:29:54;99336.88;;;5.16;100.00
30554;BME280;17335;50.720;7.452;2023-12-20T03:32:21;99339.63;;;5.14;100.00
30554;BME280;17335;50.720;7.452;2023-12-20T03:34:47;99339.84;;;5.11;100.00
30554;BME280;17335;50.720;7.452;2023-12-20T03:37:15;99336.44;;;5.09;100.00
30554;BME280;17335;50.720;7.452;2023-12-20T03:39:41;99336.00;;;5.15;100.00
30554;BME280;17335;50.720;7.452;2023-12-20T03:42:08;99328.34;;;5.11;100.00
30554;BME280;17335;50.720;7.452;2023-12-20T03:44:38;99310.13;;;5.17;100.00
30554;BME280;17335;50.720;7.452;2023-12-20T03:47:05;99318.88;;;5.06;100.00
30554;BME280;17335;50.720;7.452;2023-12-20T03:49:32;99309.66;;;4.99;100.00
30554;BME280;17335;50.720;7.452;2023-12-20T03:51:58;99319.63;;;5.08;100.00
30554;BME280;17335;50.720;7.452;2023-12-20T03:54:25;99309.72;;;5.11;100.00
30554;BME280;17335;50.720;7.452;2023-12-20T03:56:51;99314.91;;;5.12;100.00
30554;BME280;17335;50.720;7.452;2023-12-20T03:59:18;99309.06;;;5.07;100.00
30554;BME280;17335;50.720;7.452;2023-12-20T04:01:44;99321.09;;;5.13;100.00
30554;BME280;17335;50.720;7.452;2023-12-20T04:04:12;99311.22;;;5.02;100.00
30554;BME280;17335;50.720;7.452;2023-12-20T04:06:38;99310.28;;;5.03;100.00
30554;BME280;17335;50.720;7.452;2023-12-20T04:09:05;99320.06;;;5.02;100.00
30554;BME280;17335;50.720;7.452;2023-12-20T04:11:32;99319.44;;;4.99;100.00
30554;BME280;17335;50.720;7.452;2023-12-20T04:13:58;99321.13;;;5.00;100.00
30554;BME280;17335;50.720;7.452;2023-12-20T04:16:25;99318.56;;;5.11;100.00
30554;BME280;17335;50.720;7.452;2023-12-20T04:18:51;99337.19;;;5.11;100.00
30554;BME280;17335;50.720;7.452;2023-12-20T04:21:18;99322.63;;;5.04;100.00
30554;BME280;17335;50.720;7.452;2023-12-20T04:23:45;99324.75;;;4.99;100.00
30554;BME280;17335;50.720;7.452;2023-12-20T04:26:11;99333.69;;;4.98;100.00
30554;BME280;17335;50.720;7.452;2023-12-20T04:28:38;99331.88;;;4.98;100.00
30554;BME280;17335;50.720;7.452;2023-12-20T04:31:04;99325.28;;;5.04;100.00
30554;BME280;17335;50.720;7.452;2023-12-20T04:33:31;99322.84;;;5.01;100.00
30554;BME280;17335;50.720;7.452;2023-12-20T04:35:57;99313.34;;;4.97;100.00
30554;BME280;17335;50.720;7.452;2023-12-20T04:38:24;99317.94;;;4.95;100.00
30554;BME280;17335;50.720;7.452;2023-12-20T04:40:50;99319.75;;;4.94;100.00
30554;BME280;17335;50.720;7.452;2023-12-20T04:43:17;99323.63;;;4.90;100.00
30554;BME280;17335;50.720;7.452;2023-12-20T04:45:44;99331.13;;;4.96;100.00
30554;BME280;17335;50.720;7.452;2023-12-20T04:48:11;99332.22;;;4.94;100.00
30554;BME280;17335;50.720;7.452;2023-12-20T04:50:38;99329.31;;;4.97;100.00
30554;BME280;17335;50.720;7.452;2023-12-20T04:53:05;99319.13;;;4.91;100.00
30554;BME280;17335;50.720;7.452;2023-12-20T04:55:31;99318.16;;;5.04;100.00
30554;BME280;17335;50.720;7.452;2023-12-20T04:57:58;99321.53;;;5.06;100.00
30554;BME280;17335;50.720;7.452;2023-12-20T05:00:24;99323.34;;;5.06;100.00
30554;BME280;17335;50.720;7.452;2023-12-20T05:02:51;99332.50;;;5.02;100.00
30554;BME280;17335;50.720;7.452;2023-12-20T05:05:18;99339.44;;;5.04;100.00
30554;BME280;17335;50.720;7.452;2023-12-20T05:07:46;99339.22;;;5.07;100.00
30554;BME280;17335;50.720;7.452;2023-12-20T05:10:13;99339.53;;;5.03;100.00
30554;BME280;17335;50.720;7.452;2023-12-20T05:12:40;99334.00;;;5.06;100.00
30554;BME280;17335;50.720;7.452;2023-12-20T05:15:07;99331.66;;;5.01;100.00
30554;BME280;17335;50.720;7.452;2023-12-20T05:17:34;99330.59;;;5.04;100.00
30554;BME280;17335;50.720;7.452;2023-12-20T05:20:01;99319.19;;;5.02;100.00
30554;BME280;17335;50.720;7.452;2023-12-20T05:22:27;99327.44;;;4.99;100.00
30554;BME280;17335;50.720;7.452;2023-12-20T05:24:54;99319.66;;;4.96;100.00
30554;BME280;17335;50.720;7.452;2023-12-20T05:27:21;99327.94;;;5.04;100.00
30554;BME280;17335;50.720;7.452;2023-12-20T05:29:47;99335.41;;;4.99;100.00
30554;BME280;17335;50.720;7.452;2023-12-20T05:32:14;99332.84;;;4.97;100.00
30554;BME280;17335;50.720;7.452;2023-12-20T05:34:40;99333.47;;;5.01;100.00
30554;BME280;17335;50.720;7.452;2023-12-20T05:37:07;99338.13;;;5.10;100.00
30554;BME280;17335;50.720;7.452;2023-12-20T05:39:33;99330.25;;;5.08;100.00
30554;BME280;17335;50.720;7.452;2023-12-20T05:41:59;99336.66;;;5.06;100.00
30554;BME280;17335;50.720;7.452;2023-12-20T05:44:26;99341.41;;;5.14;100.00
30554;BME280;17335;50.720;7.452;2023-12-20T05:46:52;99334.94;;;5.05;100.00
30554;BME280;17335;50.720;7.452;2023-12-20T05:49:19;99334.31;;;5.01;100.00
30554;BME280;17335;50.720;7.452;2023-12-20T05:51:45;99331.25;;;4.95;100.00
30554;BME280;17335;50.720;7.452;2023-12-20T05:54:12;99343.03;;;5.03;100.00
30554;BME280;17335;50.720;7.452;2023-12-20T05:56:38;99346.88;;;4.99;100.00
30554;BME280;17335;50.720;7.452;2023-12-20T05:59:05;99360.19;;;4.99;100.00
30554;BME280;17335;50.720;7.452;2023-12-20T06:01:31;99358.16;;;5.03;100.00
30554;BME280;17335;50.720;7.452;2023-12-20T06:03:58;99345.38;;;5.08;100.00
30554;BME280;17335;50.720;7.452;2023-12-20T06:06:25;99338.13;;;5.10;100.00
30554;BME280;17335;50.720;7.452;2023-12-20T06:08:51;99345.06;;;5.00;100.00
30554;BME280;17335;50.720;7.452;2023-12-20T06:11:18;99344.97;;;5.01;100.00
30554;BME280;17335;50.720;7.452;2023-12-20T06:13:44;99349.34;;;4.89;100.00
30554;BME280;17335;50.720;7.452;2023-12-20T06:16:10;99344.75;;;4.92;100.00
30554;BME280;17335;50.720;7.452;2023-12-20T06:18:37;99346.47;;;4.93;100.00
30554;BME280;17335;50.720;7.452;2023-12-20T06:21:04;99340.19;;;4.94;100.00
30554;BME280;17335;50.720;7.452;2023-12-20T06:23:31;99357.13;;;4.93;100.00
30554;BME280;17335;50.720;7.452;2023-12-20T06:25:57;99350.06;;;4.92;100.00
30554;BME280;17335;50.720;7.452;2023-12-20T06:28:24;99348.81;;;4.97;100.00
30554;BME280;17335;50.720;7.452;2023-12-20T06:30:50;99347.00;;;4.98;100.00
30554;BME280;17335;50.720;7.452;2023-12-20T06:33:19;99349.66;;;4.98;100.00
30554;BME280;17335;50.720;7.452;2023-12-20T06:35:48;99355.50;;;5.03;100.00
30554;BME280;17335;50.720;7.452;2023-12-20T06:38:14;99351.03;;;5.03;100.00
30554;BME280;17335;50.720;7.452;2023-12-20T06:40:41;99347.94;;;4.97;100.00
30554;BME280;17335;50.720;7.452;2023-12-20T06:43:09;99349.88;;;4.95;100.00
30554;BME280;17335;50.720;7.452;2023-12-20T06:45:49;99352.31;;;4.98;100.00
30554;BME280;17335;50.720;7.452;2023-12-20T06:48:17;99353.72;;;4.91;100.00
30554;BME280;17335;50.720;7.452;2023-12-20T06:50:45;99344.53;;;4.95;100.00
30554;BME280;17335;50.720;7.452;2023-12-20T06:53:12;99352.00;;;4.89;100.00
30554;BME280;17335;50.720;7.452;2023-12-20T06:55:38;99353.28;;;4.84;100.00
30554;BME280;17335;50.720;7.452;2023-12-20T06:58:05;99361.38;;;4.82;100.00
30554;BME280;17335;50.720;7.452;2023-12-20T07:00:32;99353.72;;;4.78;100.00
30554;BME280;17335;50.720;7.452;2023-12-20T07:02:59;99350.63;;;4.84;100.00
30554;BME280;17335;50.720;7.452;2023-12-20T07:05:27;99348.72;;;4.86;100.00
30554;BME280;17335;50.720;7.452;2023-12-20T07:07:54;99342.75;;;4.82;100.00
30554;BME280;17335;50.720;7.452;2023-12-20T07:10:20;99339.88;;;4.85;100.00
30554;BME280;17335;50.720;7.452;2023-12-20T07:12:47;99348.06;;;4.82;100.00
30554;BME280;17335;50.720;7.452;2023-12-20T07:15:15;99346.25;;;4.83;100.00
30554;BME280;17335;50.720;7.452;2023-12-20T07:17:41;99357.78;;;4.83;100.00
30554;BME280;17335;50.720;7.452;2023-12-20T07:20:09;99359.44;;;4.84;100.00
30554;BME280;17335;50.720;7.452;2023-12-20T07:22:37;99356.78;;;4.84;100.00
30554;BME280;17335;50.720;7.452;2023-12-20T07:25:04;99360.72;;;4.92;100.00
30554;BME280;17335;50.720;7.452;2023-12-20T07:27:31;99366.28;;;4.88;100.00
30554;BME280;17335;50.720;7.452;2023-12-20T07:29:58;99358.41;;;4.87;100.00
30554;BME280;17335;50.720;7.452;2023-12-20T07:32:25;99359.66;;;4.94;100.00
30554;BME280;17335;50.720;7.452;2023-12-20T07:34:52;99366.69;;;4.82;100.00
30554;BME280;17335;50.720;7.452;2023-12-20T07:37:20;99367.44;;;4.84;100.00
30554;BME280;17335;50.720;7.452;2023-12-20T07:39:47;99360.44;;;4.83;100.00
30554;BME280;17335;50.720;7.452;2023-12-20T07:42:14;99367.31;;;4.86;100.00
30554;BME280;17335;50.720;7.452;2023-12-20T07:44:40;99365.09;;;4.93;100.00
30554;BME280;17335;50.720;7.452;2023-12-20T07:47:07;99374.53;;;4.97;100.00
30554;BME280;17335;50.720;7.452;2023-12-20T07:49:34;99371.69;;;4.87;100.00
30554;BME280;17335;50.720;7.452;2023-12-20T07:52:01;99373.06;;;4.93;100.00
30554;BME280;17335;50.720;7.452;2023-12-20T07:54:27;99378.81;;;4.86;100.00
30554;BME280;17335;50.720;7.452;2023-12-20T07:56:55;99376.91;;;4.88;100.00
30554;BME280;17335;50.720;7.452;2023-12-20T07:59:21;99369.88;;;4.87;100.00
30554;BME280;17335;50.720;7.452;2023-12-20T08:01:58;99384.13;;;4.99;100.00
30554;BME280;17335;50.720;7.452;2023-12-20T08:04:25;99368.59;;;4.93;100.00
30554;BME280;17335;50.720;7.452;2023-12-20T08:06:52;99378.72;;;5.01;100.00
30554;BME280;17335;50.720;7.452;2023-12-20T08:09:18;99378.41;;;4.93;100.00
30554;BME280;17335;50.720;7.452;2023-12-20T08:11:46;99385.31;;;4.95;100.00
30554;BME280;17335;50.720;7.452;2023-12-20T08:14:13;99386.91;;;4.98;100.00
30554;BME280;17335;50.720;7.452;2023-12-20T08:16:41;99380.06;;;5.06;100.00
30554;BME280;17335;50.720;7.452;2023-12-20T08:19:07;99390.41;;;4.98;100.00
30554;BME280;17335;50.720;7.452;2023-12-20T08:21:34;99393.69;;;5.02;100.00
30554;BME280;17335;50.720;7.452;2023-12-20T08:24:04;99379.44;;;5.03;100.00
30554;BME280;17335;50.720;7.452;2023-12-20T08:26:33;99380.19;;;5.05;100.00
30554;BME280;17335;50.720;7.452;2023-12-20T08:29:00;99375.38;;;5.10;100.00
30554;BME280;17335;50.720;7.452;2023-12-20T08:31:28;99377.97;;;4.99;100.00
30554;BME280;17335;50.720;7.452;2023-12-20T08:33:55;99375.50;;;5.08;100.00
30554;BME280;17335;50.720;7.452;2023-12-20T08:36:22;99383.72;;;5.05;100.00
30554;BME280;17335;50.720;7.452;2023-12-20T08:38:50;99371.69;;;5.00;100.00
30554;BME280;17335;50.720;7.452;2023-12-20T08:41:17;99376.56;;;5.06;100.00
30554;BME280;17335;50.720;7.452;2023-12-20T08:43:44;99382.22;;;5.01;100.00
30554;BME280;17335;50.720;7.452;2023-12-20T08:46:10;99382.84;;;5.05;100.00
30554;BME280;17335;50.720;7.452;2023-12-20T08:48:37;99379.44;;;5.03;100.00
30554;BME280;17335;50.720;7.452;2023-12-20T08:51:05;99374.75;;;5.06;100.00
30554;BME280;17335;50.720;7.452;2023-12-20T08:53:34;99361.25;;;5.10;100.00
30554;BME280;17335;50.720;7.452;2023-12-20T08:56:01;99364.75;;;5.10;100.00
30554;BME280;17335;50.720;7.452;2023-12-20T08:58:28;99365.72;;;5.09;100.00
30554;BME280;17335;50.720;7.452;2023-12-20T09:00:55;99354.63;;;5.15;100.00
30554;BME280;17335;50.720;7.452;2023-12-20T09:03:21;99352.59;;;5.19;100.00
30554;BME280;17335;50.720;7.452;2023-12-20T09:05:48;99345.38;;;5.21;100.00
30554;BME280;17335;50.720;7.452;2023-12-20T09:08:14;99352.59;;;5.19;100.00
30554;BME280;17335;50.720;7.452;2023-12-20T09:10:41;99343.88;;;5.17;100.00
30554;BME280;17335;50.720;7.452;2023-12-20T09:13:07;99364.38;;;5.28;100.00
30554;BME280;17335;50.720;7.452;2023-12-20T09:15:34;99359.19;;;5.26;100.00
30554;BME280;17335;50.720;7.452;2023-12-20T09:18:02;99357.88;;;5.32;100.00
30554;BME280;17335;50.720;7.452;2023-12-20T09:20:30;99358.72;;;5.32;100.00
30554;BME280;17335;50.720;7.452;2023-12-20T09:22:57;99360.19;;;5.36;100.00
30554;BME280;17335;50.720;7.452;2023-12-20T09:25:24;99362.69;;;5.26;100.00
30554;BME280;17335;50.720;7.452;2023-12-20T09:27:52;99370.22;;;5.33;100.00
30554;BME280;17335;50.720;7.452;2023-12-20T09:30:19;99370.47;;;5.30;100.00
30554;BME280;17335;50.720;7.452;2023-12-20T09:32:53;99367.28;;;5.24;100.00
30554;BME280;17335;50.720;7.452;2023-12-20T09:35:21;99368.06;;;5.38;100.00
30554;BME280;17335;50.720;7.452;2023-12-20T09:37:49;99364.16;;;5.31;100.00
30554;BME280;17335;50.720;7.452;2023-12-20T09:40:18;99360.97;;;5.38;100.00
30554;BME280;17335;50.720;7.452;2023-12-20T09:43:03;99357.44;;;5.38;100.00
30554;BME280;17335;50.720;7.452;2023-12-20T09:45:31;99364.88;;;5.45;100.00
30554;BME280;17335;50.720;7.452;2023-12-20T09:47:58;99355.28;;;5.43;100.00
30554;BME280;17335;50.720;7.452;2023-12-20T09:50:25;99356.78;;;5.47;100.00
30554;BME280;17335;50.720;7.452;2023-12-20T09:52:53;99351.22;;;5.50;100.00
30554;BME280;17335;50.720;7.452;2023-12-20T09:55:20;99348.44;;;5.52;100.00
30554;BME280;17335;50.720;7.452;2023-12-20T09:57:48;99353.25;;;5.47;100.00
30554;BME280;17335;50.720;7.452;2023-12-20T10:00:16;99344.81;;;5.53;100.00
30554;BME280;17335;50.720;7.452;2023-12-20T10:02:57;99356.19;;;5.55;100.00
30554;BME280;17335;50.720;7.452;2023-12-20T10:05:29;99336.81;;;5.53;100.00
30554;BME280;17335;50.720;7.452;2023-12-20T10:07:56;99350.66;;;5.58;100.00
30554;BME280;17335;50.720;7.452;2023-12-20T10:10:23;99351.66;;;5.44;100.00
30554;BME280;17335;50.720;7.452;2023-12-20T10:13:05;99346.28;;;5.57;100.00
30554;BME280;17335;50.720;7.452;2023-12-20T10:15:33;99343.09;;;5.52;100.00
30554;BME280;17335;50.720;7.452;2023-12-20T10:18:03;99333.09;;;5.55;100.00
30554;BME280;17335;50.720;7.452;2023-12-20T10:20:31;99338.53;;;5.54;100.00
30554;BME280;17335;50.720;7.452;2023-12-20T10:22:59;99338.03;;;5.49;100.00
30554;BME280;17335;50.720;7.452;2023-12-20T10:25:26;99340.13;;;5.56;100.00
30554;BME280;17335;50.720;7.452;2023-12-20T10:28:13;99327.88;;;5.54;100.00
30554;BME280;17335;50.720;7.452;2023-12-20T10:30:41;99323.63;;;5.51;100.00
30554;BME280;17335;50.720;7.452;2023-12-20T10:33:09;99334.06;;;5.54;100.00
30554;BME280;17335;50.720;7.452;2023-12-20T10:35:37;99336.94;;;5.51;100.00
30554;BME280;17335;50.720;7.452;2023-12-20T10:38:08;99317.97;;;5.56;100.00
30554;BME280;17335;50.720;7.452;2023-12-20T10:40:36;99331.16;;;5.57;100.00
30554;BME280;17335;50.720;7.452;2023-12-20T10:43:05;99324.75;;;5.60;100.00
30554;BME280;17335;50.720;7.452;2023-12-20T10:45:33;99321.88;;;5.63;100.00
30554;BME280;17335;50.720;7.452;2023-12-20T10:48:01;99323.59;;;5.64;100.00
30554;BME280;17335;50.720;7.452;2023-12-20T10:50:29;99323.91;;;5.59;100.00
30554;BME280;17335;50.720;7.452;2023-12-20T10:53:00;99314.84;;;5.62;100.00
30554;BME280;17335;50.720;7.452;2023-12-20T10:55:27;99303.63;;;5.70;100.00
30554;BME280;17335;50.720;7.452;2023-12-20T10:58:00;99307.94;;;5.59;100.00
30554;BME280;17335;50.720;7.452;2023-12-20T11:00:29;99298.53;;;5.67;100.00
30554;BME280;17335;50.720;7.452;2023-12-20T11:03:00;99302.78;;;5.69;100.00
30554;BME280;17335;50.720;7.452;2023-12-20T11:05:36;99301.19;;;5.67;100.00
30554;BME280;17335;50.720;7.452;2023-12-20T11:08:35;99293.91;;;5.57;100.00
30554;BME280;17335;50.720;7.452;2023-12-20T11:11:12;99295.84;;;5.67;100.00
30554;BME280;17335;50.720;7.452;2023-12-20T11:14:03;99282.59;;;5.78;100.00
30554;BME280;17335;50.720;7.452;2023-12-20T11:16:33;99288.25;;;5.73;100.00
30554;BME280;17335;50.720;7.452;2023-12-20T11:19:14;99284.25;;;5.68;100.00
30554;BME280;17335;50.720;7.452;2023-12-20T11:21:41;99300.97;;;5.70;100.00
30554;BME280;17335;50.720;7.452;2023-12-20T11:24:07;99298.06;;;5.73;100.00
30554;BME280;17335;50.720;7.452;2023-12-20T11:26:34;99297.25;;;5.83;100.00
30554;BME280;17335;50.720;7.452;2023-12-20T11:29:29;99291.09;;;5.83;100.00
30554;BME280;17335;50.720;7.452;2023-12-20T11:31:56;99290.09;;;5.84;100.00
30554;BME280;17335;50.720;7.452;2023-12-20T11:34:27;99296.25;;;5.73;100.00
30554;BME280;17335;50.720;7.452;2023-12-20T11:36:58;99292.75;;;5.73;100.00
30554;BME280;17335;50.720;7.452;2023-12-20T11:39:26;99289.84;;;5.76;100.00
30554;BME280;17335;50.720;7.452;2023-12-20T11:41:55;99296.75;;;5.78;100.00
30554;BME280;17335;50.720;7.452;2023-12-20T11:44:24;99291.09;;;5.83;100.00
30554;BME280;17335;50.720;7.452;2023-12-20T11:46:51;99304.81;;;5.90;100.00
30554;BME280;17335;50.720;7.452;2023-12-20T11:49:18;99307.81;;;5.85;100.00
30554;BME280;17335;50.720;7.452;2023-12-20T11:51:44;99291.09;;;5.94;100.00
30554;BME280;17335;50.720;7.452;2023-12-20T11:54:11;99284.09;;;5.93;100.00
30554;BME280;17335;50.720;7.452;2023-12-20T11:56:38;99298.38;;;5.92;100.00
30554;BME280;17335;50.720;7.452;2023-12-20T11:59:04;99289.19;;;5.96;100.00
30554;BME280;17335;50.720;7.452;2023-12-20T12:01:52;99287.94;;;5.89;100.00
30554;BME280;17335;50.720;7.452;2023-12-20T12:04:19;99284.09;;;5.93;100.00
30554;BME280;17335;50.720;7.452;2023-12-20T12:06:46;99280.25;;;5.97;100.00
30554;BME280;17335;50.720;7.452;2023-12-20T12:09:15;99277.28;;;5.89;100.00
30554;BME280;17335;50.720;7.452;2023-12-20T12:11:42;99271.13;;;5.89;100.00
30554;BME280;17335;50.720;7.452;2023-12-20T12:14:09;99268.13;;;5.93;100.00
30554;BME280;17335;50.720;7.452;2023-12-20T12:16:36;99262.31;;;5.99;100.00
30554;BME280;17335;50.720;7.452;2023-12-20T12:19:03;99266.41;;;5.92;100.00
30554;BME280;17335;50.720;7.452;2023-12-20T12:21:30;99266.59;;;6.02;100.00
30554;BME280;17335;50.720;7.452;2023-12-20T12:24:09;99249.88;;;6.00;100.00
30554;BME280;17335;50.720;7.452;2023-12-20T12:26:36;99249.00;;;5.99;100.00
30554;BME280;17335;50.720;7.452;2023-12-20T12:29:07;99246.56;;;5.96;100.00
30554;BME280;17335;50.720;7.452;2023-12-20T12:31:34;99241.25;;;5.96;100.00
30554;BME280;17335;50.720;7.452;2023-12-20T12:34:01;99252.34;;;5.90;100.00
30554;BME280;17335;50.720;7.452;2023-12-20T12:36:28;99235.66;;;5.88;100.00
30554;BME280;17335;50.720;7.452;2023-12-20T12:38:57;99234.66;;;5.89;100.00
30554;BME280;17335;50.720;7.452;2023-12-20T12:41:24;99226.31;;;5.94;100.00
30554;BME280;17335;50.720;7.452;2023-12-20T12:43:50;99221.84;;;5.94;100.00
30554;BME280;17335;50.720;7.452;2023-12-20T12:46:17;99214.38;;;5.99;100.00
30554;BME280;17335;50.720;7.452;2023-12-20T12:48:44;99207.19;;;5.89;100.00
30554;BME280;17335;50.720;7.452;2023-12-20T12:51:13;99206.88;;;6.05;100.00
30554;BME280;17335;50.720;7.452;2023-12-20T12:53:42;99211.94;;;5.96;100.00
30554;BME280;17335;50.720;7.452;2023-12-20T12:56:09;99212.16;;;5.93;100.00
30554;BME280;17335;50.720;7.452;2023-12-20T12:58:35;99201.00;;;5.88;100.00
30554;BME280;17335;50.720;7.452;2023-12-20T13:01:02;99215.91;;;5.91;100.00
30554;BME280;17335;50.720;7.452;2023-12-20T13:03:30;99214.59;;;5.96;100.00